Pagrindinis puslapis
METAR-TAF:

METAR-TAF

Oro uostai :

Konakris, Gvinėja

platuma: 09-34N, ilguma: 013-37W, Aukštis: 26 m

Dabartinis oras

Ataskaita buvo paskelbta 45 minutes, ne 23:00 UTC
Vėjas 4 kt iš Šiaurės/Šiaurės Vakarų
Temperatūra 27°C
Drėgmė 84%
Slėgis 1012 hPa
Matomumas 10 km arba daugiau
Mažai debesys ne aukštis 1500 ft

METAR: GUCY 102300Z 33004KT 9999 FEW015 27/24 Q1012 NOSIG

Laikas: 23:45 (23:45 UTC)

Prognozė

Ataskaita buvo paskelbta 6 valandos ir 45 minutes, ne 17:00 UTC
Prognozė galioja nuo 10 metu 18 UTC su 11 metu 24 UTC
Vėjas 6 kt iš Šiaurės
Matomumas 10 km arba daugiau
Mažai debesys ne aukštis 1500 ft
Išsisklaidę debesys ne aukštis 12000 ft
Laikinai
nuo 10 metu 19 UTC su 10 metu 23 UTC
Vėjas 6 kt iš Pietų
Laikinai
nuo 11 metu 03 UTC su 11 metu 09 UTC
Vėjas 4 kt iš Rytų/Šiaurės Rytų
Matomumas: 3000 m
Mažai debesys ne aukštis 1300 ft
Su prošvaistėmis ne aukštis 11000 ft
rūkana,

TAF: GUCY 101700Z 1018/1124 35006KT 9999 FEW015 SCT120 TEMPO 1019/1023 17006KT TEMPO 1103/1109 07004KT 3000 BR FEW013 BKN110

Orai ataskaitas ir orų prognozės (METAR, TAF).

turimą stotys yra geltonos ir raudonos taškus žemėlapyje.

Perkelti pele per norėdami pamatyti stoties vardą.

Tada spustelėkite, norėdami matyti oro stebėjimo ir prognozės.

Norėdami pakeisti žemėlapį: spustelėkite ant žalios mygtukų su juodo kryžiaus žemyn,; žalią mygtuką su brūkšneliu, jei norite nutolinti; arba žalių rodyklių gretimoms žemėlapius.


METAR-TAF: